Time;durP1;ratioP1;P1;durP2;ratioP2;P2;SDS_P1;SDS_P2;PMS_P1;PMS_P2;Temp;Humidity;BMP_temperature;BMP_pressure;BME280_temperature;BME280_humidity;BME280_pressure;Samples;Min_cycle;Max_cycle;Signal;HPM_P1;HPM_P2
2023/01/17 00:01:55;;;;;;;2.65;1.65;;;;;;;;;;8252893;28;20049;-73
2023/01/17 00:10:19;;;;;;;6.72;2.40;;;;;;;;;;8250934;28;20091;-73
2023/01/17 00:14:19;;;;;;;3.28;2.20;;;;;;;;;;8252662;28;20030;-72
2023/01/17 00:18:19;;;;;;;3.05;1.75;;;;;;;;;;8230063;28;20034;-73
2023/01/17 01:34:49;;;;;;;3.17;2.00;;;;;;;;;;8258132;28;20129;-73
2023/01/17 01:38:49;;;;;;;7.70;2.35;;;;;;;;;;8257565;28;20066;-73
2023/01/17 01:42:54;;;;;;;3.03;2.17;;;;;;;;;;8257340;28;20961;-73
2023/01/17 01:46:54;;;;;;;6.03;2.55;;;;;;;;;;8258525;28;20725;-73
2023/01/17 01:50:54;;;;;;;3.10;2.40;;;;;;;;;;8256746;28;20022;-75
2023/01/17 01:54:57;;;;;;;3.70;2.25;;;;;;;;;;8246239;28;20807;-73
2023/01/17 01:58:58;;;;;;;6.88;2.60;;;;;;;;;;8257690;28;20227;-73
2023/01/17 02:03:00;;;;;;;9.93;2.80;;;;;;;;;;8256955;28;20041;-73
2023/01/17 02:07:09;;;;;;;4.10;2.30;;;;;;;;;;8245282;28;20057;-74
2023/01/17 02:11:10;;;;;;;5.80;2.70;;;;;;;;;;8256626;28;20105;-73
2023/01/17 02:15:10;;;;;;;4.88;2.20;;;;;;;;;;8257701;28;20053;-73
2023/01/17 02:19:10;;;;;;;7.05;2.72;;;;;;;;;;8254801;28;20143;-74
2023/01/17 02:23:11;;;;;;;4.47;2.20;;;;;;;;;;8258580;28;20034;-73
2023/01/17 02:27:11;;;;;;;6.35;3.50;;;;;;;;;;8239095;28;20030;-73
2023/01/17 02:31:25;;;;;;;4.57;2.75;;;;;;;;;;8255463;28;20049;-72
2023/01/17 02:35:28;;;;;;;5.43;2.70;;;;;;;;;;8257529;28;20033;-73
2023/01/17 02:39:31;;;;;;;2.58;2.00;;;;;;;;;;8256812;28;20111;-73
2023/01/17 02:43:32;;;;;;;2.47;2.15;;;;;;;;;;8257231;28;20030;-73
2023/01/17 02:47:32;;;;;;;6.95;2.60;;;;;;;;;;8238001;28;20042;-73
2023/01/17 02:51:41;;;;;;;3.40;2.20;;;;;;;;;;8256445;28;20048;-73
2023/01/17 02:55:52;;;;;;;7.30;2.70;;;;;;;;;;8256458;28;20029;-73
2023/01/17 02:59:58;;;;;;;5.20;2.53;;;;;;;;;;8256188;28;20030;-74
2023/01/17 03:04:10;;;;;;;3.42;2.10;;;;;;;;;;8252554;28;20050;-73
2023/01/17 03:08:11;;;;;;;5.00;2.42;;;;;;;;;;8252426;28;20030;-73
2023/01/17 03:12:12;;;;;;;5.20;2.75;;;;;;;;;;8254086;28;20500;-73
2023/01/17 03:16:16;;;;;;;3.72;2.47;;;;;;;;;;8251170;28;20463;-72
2023/01/17 03:20:16;;;;;;;2.88;2.47;;;;;;;;;;8231469;28;20033;-73
2023/01/17 03:24:16;;;;;;;3.80;2.17;;;;;;;;;;8255504;28;20032;-73
2023/01/17 03:28:16;;;;;;;3.75;2.10;;;;;;;;;;8253838;28;20055;-73
2023/01/17 03:32:17;;;;;;;2.72;2.00;;;;;;;;;;8235875;28;20129;-72
2023/01/17 03:36:19;;;;;;;3.00;2.10;;;;;;;;;;8237271;28;20045;-73
2023/01/17 03:40:19;;;;;;;4.30;2.22;;;;;;;;;;8254009;28;20273;-73
2023/01/17 03:44:19;;;;;;;6.57;2.72;;;;;;;;;;8254121;28;20056;-72
2023/01/17 03:48:20;;;;;;;3.08;1.85;;;;;;;;;;8252355;28;20033;-72
2023/01/17 03:52:20;;;;;;;4.80;2.55;;;;;;;;;;8254552;28;20129;-73
2023/01/17 03:56:20;;;;;;;5.78;2.38;;;;;;;;;;8254862;28;20021;-73
2023/01/17 04:00:21;;;;;;;2.50;2.13;;;;;;;;;;8252912;28;20025;-73
2023/01/17 04:04:21;;;;;;;3.63;2.20;;;;;;;;;;8252663;28;20071;-73
2023/01/17 04:08:21;;;;;;;1.92;1.83;;;;;;;;;;8252869;28;20065;-73
2023/01/17 04:12:22;;;;;;;3.00;2.03;;;;;;;;;;8240516;28;20030;-73
2023/01/17 04:16:24;;;;;;;2.80;2.10;;;;;;;;;;8254231;28;20049;-73
2023/01/17 04:20:29;;;;;;;4.65;2.03;;;;;;;;;;8252459;28;20014;-72
2023/01/17 04:24:29;;;;;;;4.47;2.10;;;;;;;;;;8252729;28;20034;-73
2023/01/17 04:28:30;;;;;;;2.30;1.83;;;;;;;;;;8241539;28;20711;-72
2023/01/17 04:32:30;;;;;;;3.28;1.98;;;;;;;;;;8251413;28;20034;-73
2023/01/17 04:36:31;;;;;;;3.42;2.10;;;;;;;;;;8253775;28;20050;-72
2023/01/17 04:40:31;;;;;;;2.03;1.85;;;;;;;;;;8251908;28;20018;-73
2023/01/17 04:44:31;;;;;;;3.75;2.20;;;;;;;;;;8253927;28;20025;-73
2023/01/17 04:48:32;;;;;;;3.20;1.88;;;;;;;;;;8252813;28;20045;-73
2023/01/17 04:52:32;;;;;;;7.05;2.38;;;;;;;;;;8254500;28;20045;-74
2023/01/17 04:56:32;;;;;;;3.55;2.20;;;;;;;;;;8251523;28;20497;-73
2023/01/17 05:00:32;;;;;;;5.90;2.13;;;;;;;;;;8252205;28;20257;-72
2023/01/17 05:04:32;;;;;;;3.97;1.80;;;;;;;;;;8253029;28;20998;-73
2023/01/17 05:08:33;;;;;;;3.47;1.80;;;;;;;;;;8251046;28;20026;-73
2023/01/17 05:12:33;;;;;;;2.58;2.03;;;;;;;;;;8253031;28;20030;-73
2023/01/17 05:16:33;;;;;;;4.50;2.47;;;;;;;;;;8231964;28;20380;-72
2023/01/17 05:20:34;;;;;;;5.15;2.03;;;;;;;;;;8249575;28;20020;-72
2023/01/17 05:24:34;;;;;;;2.90;2.20;;;;;;;;;;8254043;28;20017;-73
2023/01/17 05:28:34;;;;;;;2.40;2.17;;;;;;;;;;8252182;28;20061;-73
2023/01/17 05:32:34;;;;;;;3.00;2.30;;;;;;;;;;8251250;28;20133;-73
2023/01/17 05:36:35;;;;;;;2.33;2.05;;;;;;;;;;8257220;28;20026;-74
2023/01/17 05:40:35;;;;;;;2.22;1.88;;;;;;;;;;8254834;28;20025;-72
2023/01/17 05:44:35;;;;;;;2.08;1.88;;;;;;;;;;8257667;28;20080;-73
2023/01/17 05:48:35;;;;;;;2.65;1.88;;;;;;;;;;8250255;28;20034;-73
2023/01/17 05:52:35;;;;;;;4.22;2.40;;;;;;;;;;8254352;28;20037;-73
2023/01/17 05:56:36;;;;;;;3.55;1.92;;;;;;;;;;8252795;28;20153;-72
2023/01/17 06:00:36;;;;;;;4.07;1.90;;;;;;;;;;8254432;28;20902;-73
2023/01/17 06:04:36;;;;;;;2.88;1.80;;;;;;;;;;8254002;28;20026;-72
2023/01/17 06:08:37;;;;;;;3.08;1.90;;;;;;;;;;8252764;28;20795;-72
2023/01/17 06:12:37;;;;;;;3.17;2.22;;;;;;;;;;8251814;28;20356;-72
2023/01/17 06:16:37;;;;;;;1.88;1.70;;;;;;;;;;8252080;28;20281;-72
2023/01/17 06:20:38;;;;;;;3.20;1.80;;;;;;;;;;8253967;28;20021;-72
2023/01/17 06:24:38;;;;;;;5.00;2.17;;;;;;;;;;8253078;28;20045;-72
2023/01/17 06:28:38;;;;;;;4.18;1.80;;;;;;;;;;8252334;28;20113;-72
2023/01/17 06:32:38;;;;;;;2.47;2.03;;;;;;;;;;8252042;28;20045;-72
2023/01/17 06:36:39;;;;;;;3.30;2.08;;;;;;;;;;8254516;28;20100;-72
2023/01/17 06:40:39;;;;;;;2.58;1.98;;;;;;;;;;8253871;28;20026;-72
2023/01/17 06:44:39;;;;;;;3.65;2.03;;;;;;;;;;8252606;28;20034;-72
2023/01/17 06:48:42;;;;;;;3.13;1.80;;;;;;;;;;8249492;28;20038;-72
2023/01/17 06:52:42;;;;;;;2.00;1.65;;;;;;;;;;8218489;28;1052078;-72
2023/01/17 06:56:42;;;;;;;2.15;1.70;;;;;;;;;;8255715;28;20166;-73
2023/01/17 07:00:43;;;;;;;2.22;1.70;;;;;;;;;;8255252;28;20030;-73
2023/01/17 07:04:43;;;;;;;3.30;1.90;;;;;;;;;;8254251;28;20026;-72
2023/01/17 07:08:49;;;;;;;4.90;1.90;;;;;;;;;;8251858;28;20696;-73
2023/01/17 07:12:50;;;;;;;2.35;1.98;;;;;;;;;;8255646;28;20739;-72
2023/01/17 07:16:50;;;;;;;4.05;2.28;;;;;;;;;;8254737;28;20045;-72
2023/01/17 07:20:51;;;;;;;3.45;2.60;;;;;;;;;;8251140;28;20034;-72
2023/01/17 07:24:57;;;;;;;3.35;2.00;;;;;;;;;;8253604;28;20037;-72
2023/01/17 07:28:57;;;;;;;4.20;2.10;;;;;;;;;;8250001;28;20475;-72
2023/01/17 07:32:57;;;;;;;3.00;2.03;;;;;;;;;;8254571;28;20048;-72
2023/01/17 07:36:57;;;;;;;2.65;2.15;;;;;;;;;;8254638;28;20827;-72
2023/01/17 07:40:58;;;;;;;9.13;2.45;;;;;;;;;;8234870;28;20281;-72
2023/01/17 07:44:59;;;;;;;2.92;2.17;;;;;;;;;;8251985;28;20022;-72
2023/01/17 07:48:59;;;;;;;3.15;2.50;;;;;;;;;;8239794;28;20817;-72
2023/01/17 07:52:59;;;;;;;4.03;2.75;;;;;;;;;;8254008;28;20029;-72
2023/01/17 07:57:00;;;;;;;4.28;2.67;;;;;;;;;;8234512;28;20144;-72
2023/01/17 08:01:03;;;;;;;3.47;2.78;;;;;;;;;;8250375;28;20925;-72
2023/01/17 08:05:04;;;;;;;6.05;3.20;;;;;;;;;;8249942;28;20018;-71
2023/01/17 08:09:04;;;;;;;4.88;2.90;;;;;;;;;;8232595;28;20038;-71
2023/01/17 08:13:04;;;;;;;4.30;2.60;;;;;;;;;;8250267;28;20507;-72
2023/01/17 08:17:05;;;;;;;7.15;3.08;;;;;;;;;;8235940;28;20153;-72
2023/01/17 08:21:13;;;;;;;6.43;4.20;;;;;;;;;;8243593;28;20482;-72
2023/01/17 08:25:13;;;;;;;9.85;4.07;;;;;;;;;;8250976;28;20025;-72
2023/01/17 08:29:14;;;;;;;4.67;2.83;;;;;;;;;;8249232;28;20030;-72
2023/01/17 08:33:14;;;;;;;8.18;2.90;;;;;;;;;;8249934;28;20320;-72
2023/01/17 08:37:15;;;;;;;7.82;3.03;;;;;;;;;;8247409;28;20049;-71
2023/01/17 08:41:15;;;;;;;6.13;3.05;;;;;;;;;;8250620;28;20029;-72
2023/01/17 08:45:15;;;;;;;7.38;2.72;;;;;;;;;;8246387;28;20025;-72
2023/01/17 08:49:15;;;;;;;3.58;2.20;;;;;;;;;;8247939;28;20022;-72
2023/01/17 08:53:17;;;;;;;5.97;2.65;;;;;;;;;;8249688;28;20034;-71
2023/01/17 08:57:17;;;;;;;2.67;1.98;;;;;;;;;;8245185;28;20026;-72
2023/01/17 09:01:17;;;;;;;2.92;2.30;;;;;;;;;;8246852;28;20033;-73
2023/01/17 09:05:17;;;;;;;2.67;2.10;;;;;;;;;;8228077;28;20049;-72
2023/01/17 09:09:18;;;;;;;3.78;2.38;;;;;;;;;;8250080;28;20030;-72
2023/01/17 09:13:18;;;;;;;7.50;2.75;;;;;;;;;;8252115;28;20279;-72
2023/01/17 09:17:18;;;;;;;4.15;2.60;;;;;;;;;;8249896;28;20045;-72
2023/01/17 09:21:18;;;;;;;3.88;2.63;;;;;;;;;;8252727;28;20096;-72
2023/01/17 09:25:18;;;;;;;3.73;2.50;;;;;;;;;;8236908;28;20057;-72
2023/01/17 09:29:19;;;;;;;3.95;2.13;;;;;;;;;;8253843;28;20285;-72
2023/01/17 09:33:20;;;;;;;4.13;2.50;;;;;;;;;;8243643;28;21315;-72
2023/01/17 09:37:20;;;;;;;4.78;2.55;;;;;;;;;;8251651;28;20037;-72
2023/01/17 09:41:35;;;;;;;6.80;3.37;;;;;;;;;;8235600;28;20141;-72
2023/01/17 09:45:35;;;;;;;5.93;2.90;;;;;;;;;;8231381;28;20845;-72
2023/01/17 09:49:43;;;;;;;5.13;3.00;;;;;;;;;;8249414;28;20029;-72
2023/01/17 09:53:43;;;;;;;10.57;3.20;;;;;;;;;;8232814;28;20026;-72
2023/01/17 09:57:49;;;;;;;4.68;2.58;;;;;;;;;;8237115;28;20108;-72
2023/01/17 10:02:00;;;;;;;3.40;2.25;;;;;;;;;;8254676;28;20763;-72
2023/01/17 10:06:03;;;;;;;2.28;1.90;;;;;;;;;;8231690;28;20049;-71
2023/01/17 10:10:18;;;;;;;2.88;1.80;;;;;;;;;;8254624;28;20026;-72
2023/01/17 10:14:36;;;;;;;3.47;2.05;;;;;;;;;;8251259;28;20823;-72
2023/01/17 10:18:36;;;;;;;2.47;1.70;;;;;;;;;;8232364;28;20041;-72
2023/01/17 10:22:36;;;;;;;3.20;1.75;;;;;;;;;;8257298;28;20020;-73
2023/01/17 10:26:37;;;;;;;3.38;1.60;;;;;;;;;;8254563;28;20108;-72
2023/01/17 10:30:41;;;;;;;3.20;2.10;;;;;;;;;;8254627;28;20037;-72
2023/01/17 10:34:46;;;;;;;4.25;1.45;;;;;;;;;;8240165;28;20025;-71
2023/01/17 10:38:48;;;;;;;3.47;2.08;;;;;;;;;;8253465;28;20036;-72
2023/01/17 10:42:54;;;;;;;5.75;2.40;;;;;;;;;;8253802;28;20014;-72
2023/01/17 10:46:57;;;;;;;3.63;2.50;;;;;;;;;;8254439;28;20046;-72
2023/01/17 10:51:16;;;;;;;4.63;2.30;;;;;;;;;;8234087;28;20475;-72
2023/01/17 10:55:24;;;;;;;3.30;2.05;;;;;;;;;;8252696;28;20123;-72
2023/01/17 10:59:29;;;;;;;4.03;2.30;;;;;;;;;;8234725;28;20264;-72
2023/01/17 11:03:30;;;;;;;3.10;2.50;;;;;;;;;;8252553;28;20037;-72
2023/01/17 11:07:31;;;;;;;3.03;2.28;;;;;;;;;;8234327;28;20022;-72
2023/01/17 11:11:32;;;;;;;2.88;1.77;;;;;;;;;;8251317;28;20108;-72
2023/01/17 11:15:35;;;;;;;2.55;2.00;;;;;;;;;;8253102;28;20038;-72
2023/01/17 11:19:37;;;;;;;3.35;1.90;;;;;;;;;;8252906;28;20040;-72
2023/01/17 11:23:39;;;;;;;5.30;2.20;;;;;;;;;;8256249;28;20021;-72
2023/01/17 11:27:40;;;;;;;6.20;2.67;;;;;;;;;;8249971;28;20052;-72
2023/01/17 11:31:40;;;;;;;4.63;3.00;;;;;;;;;;8233956;28;20718;-72
2023/01/17 11:35:43;;;;;;;5.43;2.55;;;;;;;;;;8254545;28;20021;-72
2023/01/17 11:39:46;;;;;;;2.55;2.20;;;;;;;;;;8251368;28;20128;-72
2023/01/17 11:43:51;;;;;;;4.88;2.50;;;;;;;;;;8250253;28;20047;-72
2023/01/17 11:48:09;;;;;;;5.63;2.08;;;;;;;;;;8247470;28;20991;-72
2023/01/17 11:52:16;;;;;;;3.63;2.45;;;;;;;;;;8253526;28;20982;-72
2023/01/17 11:56:16;;;;;;;3.30;2.25;;;;;;;;;;8238487;28;20026;-72
2023/01/17 12:00:24;;;;;;;3.83;2.30;;;;;;;;;;8235825;28;20107;-71
2023/01/17 12:04:37;;;;;;;2.03;1.42;;;;;;;;;;8251207;28;20029;-72
2023/01/17 12:08:50;;;;;;;4.10;1.70;;;;;;;;;;8251556;28;20033;-72
2023/01/17 12:17:18;;;;;;;3.60;2.00;;;;;;;;;;8250820;28;20044;-72
2023/01/17 12:21:22;;;;;;;2.58;2.05;;;;;;;;;;8231752;28;20025;-72
2023/01/17 12:25:22;;;;;;;3.55;1.90;;;;;;;;;;8250359;28;20038;-72
2023/01/17 12:29:22;;;;;;;2.10;1.48;;;;;;;;;;8252153;28;20029;-72
2023/01/17 12:33:29;;;;;;;3.55;2.20;;;;;;;;;;8252191;28;20038;-72
2023/01/17 12:37:37;;;;;;;3.22;1.80;;;;;;;;;;8248907;28;20084;-72
2023/01/17 12:41:52;;;;;;;6.47;2.53;;;;;;;;;;8248169;28;20021;-72
2023/01/17 12:45:53;;;;;;;4.43;2.28;;;;;;;;;;8254713;28;20501;-72
2023/01/17 12:50:04;;;;;;;4.78;1.88;;;;;;;;;;8256782;28;20037;-72
2023/01/17 12:54:08;;;;;;;3.55;2.20;;;;;;;;;;8257148;28;20056;-72
2023/01/17 12:58:08;;;;;;;;;;;;;;;;;;8254836;28;20030;-71
2023/01/17 13:02:14;;;;;;;6.88;3.92;;;;;;;;;;8254043;28;19917;-71
2023/01/17 13:06:20;;;;;;;3.72;2.20;;;;;;;;;;8255509;28;20967;-71
2023/01/17 13:10:39;;;;;;;2.63;1.63;;;;;;;;;;8254687;28;20101;-71
2023/01/17 13:14:40;;;;;;;3.28;2.03;;;;;;;;;;8252236;28;20802;-71
2023/01/17 13:18:44;;;;;;;6.10;2.20;;;;;;;;;;8249781;28;20586;-71
2023/01/17 13:22:44;;;;;;;5.85;2.92;;;;;;;;;;8254791;28;20819;-71
2023/01/17 13:26:59;;;;;;;5.00;2.88;;;;;;;;;;8257933;28;20033;-71
2023/01/17 13:31:10;;;;;;;9.00;4.43;;;;;;;;;;8255354;28;20042;-72
2023/01/17 13:35:18;;;;;;;6.72;4.13;;;;;;;;;;8253290;28;20875;-72
2023/01/17 13:39:28;;;;;;;6.78;3.95;;;;;;;;;;8253250;28;20037;-72
2023/01/17 13:43:36;;;;;;;9.73;4.10;;;;;;;;;;8241114;28;20029;-72
2023/01/17 13:47:37;;;;;;;5.20;3.88;;;;;;;;;;8255740;28;20046;-72
2023/01/17 13:51:56;;;;;;;5.55;3.70;;;;;;;;;;8254748;28;20032;-72
2023/01/17 13:56:02;;;;;;;5.35;3.30;;;;;;;;;;8249324;28;20033;-72
2023/01/17 14:00:09;;;;;;;6.93;3.42;;;;;;;;;;8251159;28;20874;-73
2023/01/17 14:04:10;;;;;;;5.28;3.47;;;;;;;;;;8246908;28;20022;-73
2023/01/17 14:08:16;;;;;;;6.05;4.00;;;;;;;;;;8251027;28;20034;-72
2023/01/17 14:12:19;;;;;;;6.38;3.65;;;;;;;;;;8254018;28;20100;-72
2023/01/17 14:16:19;;;;;;;7.50;3.80;;;;;;;;;;8250052;28;20781;-72
2023/01/17 14:20:26;;;;;;;6.63;4.07;;;;;;;;;;8248829;28;20091;-72
2023/01/17 14:24:26;;;;;;;6.57;3.40;;;;;;;;;;8246840;28;20021;-72
2023/01/17 14:28:28;;;;;;;5.82;3.70;;;;;;;;;;8227963;28;20018;-72
2023/01/17 14:32:30;;;;;;;5.78;3.40;;;;;;;;;;8249523;28;20086;-72
2023/01/17 14:36:31;;;;;;;4.72;3.03;;;;;;;;;;8251234;28;20037;-72
2023/01/17 14:40:32;;;;;;;4.47;3.05;;;;;;;;;;8249768;28;20022;-72
2023/01/17 14:44:33;;;;;;;6.38;3.20;;;;;;;;;;8248244;28;20021;-71
2023/01/17 14:48:37;;;;;;;7.03;3.08;;;;;;;;;;8247896;28;20029;-72
2023/01/17 14:52:38;;;;;;;6.47;3.42;;;;;;;;;;8248832;28;20030;-72
2023/01/17 14:56:38;;;;;;;4.13;2.70;;;;;;;;;;8253380;28;20033;-72
2023/01/17 15:00:38;;;;;;;4.25;2.53;;;;;;;;;;8247575;28;20030;-72
2023/01/17 15:04:39;;;;;;;5.20;2.80;;;;;;;;;;8249639;28;20036;-73
2023/01/17 15:08:39;;;;;;;7.40;2.67;;;;;;;;;;8247826;28;20072;-73
2023/01/17 15:12:45;;;;;;;6.70;2.90;;;;;;;;;;8246949;28;20030;-73
2023/01/17 15:16:45;;;;;;;4.28;2.90;;;;;;;;;;8230613;28;20288;-73
2023/01/17 15:20:51;;;;;;;3.85;2.70;;;;;;;;;;8245415;28;20024;-72
2023/01/17 15:24:52;;;;;;;6.20;2.88;;;;;;;;;;8247861;28;20154;-72
2023/01/17 15:28:54;;;;;;;3.97;2.78;;;;;;;;;;8228041;28;20070;-73
2023/01/17 15:32:54;;;;;;;4.55;2.80;;;;;;;;;;8249134;28;20041;-73
2023/01/17 15:36:56;;;;;;;4.68;2.85;;;;;;;;;;8250371;28;20029;-73
2023/01/17 15:41:07;;;;;;;7.45;3.35;;;;;;;;;;8250034;28;20639;-73
2023/01/17 15:45:14;;;;;;;6.55;3.63;;;;;;;;;;8245523;28;20018;-72
2023/01/17 15:49:16;;;;;;;8.73;3.05;;;;;;;;;;8241661;28;20831;-72
2023/01/17 15:53:27;;;;;;;5.28;2.78;;;;;;;;;;8245450;28;20021;-72
2023/01/17 15:57:29;;;;;;;5.93;2.55;;;;;;;;;;8243719;28;20027;-72
2023/01/17 16:01:29;;;;;;;5.82;2.70;;;;;;;;;;8245750;28;20628;-72
2023/01/17 16:05:31;;;;;;;5.70;2.87;;;;;;;;;;8244965;28;20621;-73
2023/01/17 16:09:40;;;;;;;4.70;2.85;;;;;;;;;;8219239;28;21190;-73
2023/01/17 16:13:46;;;;;;;4.80;2.70;;;;;;;;;;8244520;28;20014;-73
2023/01/17 16:17:48;;;;;;;3.55;2.50;;;;;;;;;;8242873;28;20160;-73
2023/01/17 16:21:49;;;;;;;4.80;2.35;;;;;;;;;;8242493;28;20021;-72
2023/01/17 16:25:49;;;;;;;2.85;2.33;;;;;;;;;;8244722;28;20033;-72
2023/01/17 16:29:49;;;;;;;5.40;2.75;;;;;;;;;;8231815;28;20044;-72
2023/01/17 16:33:49;;;;;;;3.30;2.08;;;;;;;;;;8244573;28;20046;-72
2023/01/17 16:37:50;;;;;;;3.78;2.30;;;;;;;;;;8251770;28;20144;-72
2023/01/17 16:41:51;;;;;;;5.28;2.85;;;;;;;;;;8248872;28;20438;-73
2023/01/17 16:45:52;;;;;;;4.78;2.65;;;;;;;;;;8250324;28;20068;-73
2023/01/17 16:49:52;;;;;;;4.15;2.40;;;;;;;;;;8248784;28;21028;-73
2023/01/17 16:53:53;;;;;;;3.20;2.13;;;;;;;;;;8251966;28;20037;-73
2023/01/17 16:57:55;;;;;;;4.00;2.77;;;;;;;;;;8249965;28;20077;-73
2023/01/17 17:01:55;;;;;;;2.65;2.28;;;;;;;;;;8250687;28;20937;-73
2023/01/17 17:05:56;;;;;;;5.60;3.25;;;;;;;;;;8251576;28;20136;-73
2023/01/17 17:09:56;;;;;;;13.40;5.90;;;;;;;;;;8250056;28;20788;-73
2023/01/17 17:13:56;;;;;;;10.05;5.72;;;;;;;;;;8252413;28;20092;-73
2023/01/17 17:17:57;;;;;;;9.38;4.93;;;;;;;;;;8250228;28;20050;-73
2023/01/17 17:21:57;;;;;;;15.10;7.05;;;;;;;;;;8253806;28;20022;-73
2023/01/17 17:25:58;;;;;;;10.02;5.18;;;;;;;;;;8252750;28;20133;-73
2023/01/17 17:29:58;;;;;;;7.00;3.90;;;;;;;;;;8252584;28;20562;-73
2023/01/17 17:33:59;;;;;;;5.80;3.90;;;;;;;;;;8244754;28;20038;-73
2023/01/17 17:37:59;;;;;;;5.35;3.88;;;;;;;;;;8246232;28;20033;-73
2023/01/17 17:42:00;;;;;;;9.52;4.25;;;;;;;;;;8241249;28;20026;-73
2023/01/17 17:46:00;;;;;;;8.88;5.10;;;;;;;;;;8254699;28;20038;-73
2023/01/17 17:50:00;;;;;;;12.57;6.22;;;;;;;;;;8255849;28;20540;-73
2023/01/17 17:54:05;;;;;;;10.57;5.70;;;;;;;;;;8257660;28;20076;-73
2023/01/17 17:58:05;;;;;;;10.77;4.47;;;;;;;;;;8255080;28;20280;-73
2023/01/17 18:02:09;;;;;;;6.50;3.73;;;;;;;;;;8251848;28;20083;-73
2023/01/17 18:06:10;;;;;;;8.00;4.13;;;;;;;;;;8250887;28;20276;-73
2023/01/17 18:10:10;;;;;;;6.32;3.60;;;;;;;;;;8252106;28;20037;-73
2023/01/17 18:14:12;;;;;;;7.37;3.00;;;;;;;;;;8252350;28;20018;-73
2023/01/17 18:18:12;;;;;;;7.38;3.00;;;;;;;;;;8251495;28;20297;-73
2023/01/17 18:22:12;;;;;;;4.25;2.58;;;;;;;;;;8236650;28;20521;-73
2023/01/17 18:26:14;;;;;;;4.17;2.80;;;;;;;;;;8252287;28;20092;-72
2023/01/17 18:30:15;;;;;;;3.67;2.50;;;;;;;;;;8251220;28;20281;-73
2023/01/17 18:34:17;;;;;;;3.92;2.42;;;;;;;;;;8233408;28;20038;-73
2023/01/17 18:38:17;;;;;;;6.15;2.58;;;;;;;;;;8251767;28;20492;-73
2023/01/17 18:42:17;;;;;;;4.63;2.88;;;;;;;;;;8250395;28;20129;-73
2023/01/17 18:46:18;;;;;;;4.55;3.38;;;;;;;;;;8253374;28;20069;-73
2023/01/17 18:50:18;;;;;;;5.47;3.47;;;;;;;;;;8250169;28;20021;-73
2023/01/17 18:54:19;;;;;;;8.68;4.47;;;;;;;;;;8250276;28;20033;-73
2023/01/17 18:58:19;;;;;;;7.43;4.30;;;;;;;;;;8252835;28;20761;-73
2023/01/17 19:02:20;;;;;;;5.65;3.70;;;;;;;;;;8229476;28;20048;-73
2023/01/17 19:06:22;;;;;;;5.55;3.10;;;;;;;;;;8253226;28;20026;-73
2023/01/17 19:10:22;;;;;;;6.72;3.53;;;;;;;;;;8251268;28;20021;-74
2023/01/17 19:14:22;;;;;;;4.07;3.25;;;;;;;;;;8233815;28;20411;-73
2023/01/17 19:18:22;;;;;;;5.45;3.70;;;;;;;;;;8229318;28;20042;-73
2023/01/17 19:22:22;;;;;;;5.53;3.42;;;;;;;;;;8253457;28;20299;-73
2023/01/17 19:26:25;;;;;;;5.28;3.33;;;;;;;;;;8251113;28;20856;-73
2023/01/17 19:30:25;;;;;;;3.65;2.60;;;;;;;;;;8250163;28;20038;-73
2023/01/17 19:34:25;;;;;;;6.20;3.10;;;;;;;;;;8253072;28;22405;-73
2023/01/17 19:38:26;;;;;;;3.42;2.65;;;;;;;;;;8251686;28;20026;-73
2023/01/17 19:42:27;;;;;;;3.88;2.60;;;;;;;;;;8254095;28;20535;-73
2023/01/17 19:46:28;;;;;;;5.63;3.30;;;;;;;;;;8251932;28;20076;-73
2023/01/17 19:50:28;;;;;;;4.70;3.13;;;;;;;;;;8240657;28;20022;-73
2023/01/17 19:54:28;;;;;;;4.78;2.95;;;;;;;;;;8253808;28;20029;-73
2023/01/17 19:58:28;;;;;;;7.55;4.43;;;;;;;;;;8252727;28;20022;-73
2023/01/17 20:02:28;;;;;;;6.95;3.67;;;;;;;;;;8248207;28;20026;-73
2023/01/17 20:06:30;;;;;;;5.15;3.33;;;;;;;;;;8232912;28;20511;-74
2023/01/17 20:10:31;;;;;;;6.35;2.92;;;;;;;;;;8251252;28;20032;-73
2023/01/17 20:14:31;;;;;;;3.93;2.73;;;;;;;;;;8228475;28;20021;-74
2023/01/17 20:18:32;;;;;;;6.60;3.67;;;;;;;;;;8235395;28;20300;-73
2023/01/17 20:22:32;;;;;;;13.45;5.13;;;;;;;;;;8251954;28;20022;-73
2023/01/17 20:26:33;;;;;;;7.38;4.00;;;;;;;;;;8252124;28;20026;-73
2023/01/17 20:30:33;;;;;;;10.35;4.03;;;;;;;;;;8247732;28;20885;-73
2023/01/17 20:34:34;;;;;;;4.90;3.08;;;;;;;;;;8231791;28;20129;-73
2023/01/17 20:38:42;;;;;;;5.80;3.10;;;;;;;;;;8231475;28;20026;-72
2023/01/17 20:42:42;;;;;;;8.27;3.65;;;;;;;;;;8229302;28;20447;-72
2023/01/17 20:46:42;;;;;;;5.28;3.17;;;;;;;;;;8250325;28;20030;-73
2023/01/17 20:50:42;;;;;;;4.43;2.57;;;;;;;;;;8246276;28;20033;-74
2023/01/17 20:54:43;;;;;;;4.00;2.67;;;;;;;;;;8249451;28;20272;-74
2023/01/17 20:58:43;;;;;;;4.10;2.38;;;;;;;;;;8245665;28;20057;-72
2023/01/17 21:02:44;;;;;;;4.65;2.60;;;;;;;;;;8237629;28;20038;-72
2023/01/17 21:06:44;;;;;;;5.20;3.17;;;;;;;;;;8220170;28;20057;-73
2023/01/17 21:10:47;;;;;;;4.25;2.80;;;;;;;;;;8257171;28;20029;-73
2023/01/17 21:14:47;;;;;;;4.03;2.87;;;;;;;;;;8235114;28;20465;-73
2023/01/17 21:18:48;;;;;;;3.60;2.88;;;;;;;;;;8254255;28;20029;-73
2023/01/17 21:22:49;;;;;;;4.35;3.28;;;;;;;;;;8258179;28;20026;-72
2023/01/17 21:26:51;;;;;;;5.47;3.50;;;;;;;;;;8255636;28;20037;-73
2023/01/17 21:30:52;;;;;;;3.83;3.00;;;;;;;;;;8257079;28;20090;-73
2023/01/17 21:34:52;;;;;;;4.18;3.47;;;;;;;;;;8255742;28;20021;-73
2023/01/17 21:38:55;;;;;;;5.00;3.50;;;;;;;;;;8255123;28;20033;-74
2023/01/17 21:42:55;;;;;;;7.75;3.60;;;;;;;;;;8254954;28;20036;-73
2023/01/17 21:46:58;;;;;;;6.82;3.65;;;;;;;;;;8254113;28;20045;-73
2023/01/17 21:51:02;;;;;;;4.35;3.17;;;;;;;;;;8250875;28;20124;-73
2023/01/17 21:59:21;;;;;;;5.45;3.78;;;;;;;;;;8250219;28;20045;-74
2023/01/17 22:03:23;;;;;;;4.43;3.40;;;;;;;;;;8253347;28;20041;-73
2023/01/17 22:07:25;;;;;;;5.15;3.40;;;;;;;;;;8255200;28;20372;-74
2023/01/17 22:11:26;;;;;;;4.03;3.08;;;;;;;;;;8252727;28;20764;-74
2023/01/17 22:15:26;;;;;;;4.82;3.60;;;;;;;;;;8253435;28;20109;-73
2023/01/17 22:19:26;;;;;;;9.38;3.83;;;;;;;;;;8252631;28;20026;-73
2023/01/17 22:23:27;;;;;;;6.88;4.05;;;;;;;;;;8253493;28;20025;-74
2023/01/17 22:27:27;;;;;;;7.95;4.13;;;;;;;;;;8253826;28;20312;-74
2023/01/17 22:31:27;;;;;;;6.68;3.95;;;;;;;;;;8248166;28;20045;-73
2023/01/17 22:35:28;;;;;;;6.53;3.70;;;;;;;;;;8234959;28;20236;-74
2023/01/17 22:39:28;;;;;;;5.10;3.67;;;;;;;;;;8250424;28;20072;-73
2023/01/17 22:43:28;;;;;;;6.53;4.20;;;;;;;;;;8253197;28;20129;-73
2023/01/17 22:47:28;;;;;;;4.28;3.17;;;;;;;;;;8250305;28;20037;-73
2023/01/17 22:51:29;;;;;;;4.53;3.38;;;;;;;;;;8252180;28;20315;-73
2023/01/17 22:55:29;;;;;;;5.30;3.53;;;;;;;;;;8251578;28;20039;-73
2023/01/17 22:59:29;;;;;;;6.22;3.40;;;;;;;;;;8252413;28;20026;-73
2023/01/17 23:03:29;;;;;;;5.28;3.20;;;;;;;;;;8251624;28;20061;-73
2023/01/17 23:07:41;;;;;;;7.97;3.45;;;;;;;;;;8252463;28;20026;-72
2023/01/17 23:11:48;;;;;;;4.15;3.10;;;;;;;;;;8254549;28;20030;-72
2023/01/17 23:20:08;;;;;;;4.43;3.15;;;;;;;;;;8251633;28;20032;-73
2023/01/17 23:24:08;;;;;;;4.88;3.22;;;;;;;;;;8251405;28;20030;-73
2023/01/17 23:28:13;;;;;;;5.70;3.40;;;;;;;;;;8250536;28;20092;-73
2023/01/17 23:32:13;;;;;;;5.32;3.50;;;;;;;;;;8237385;28;20092;-74
2023/01/17 23:36:13;;;;;;;5.38;3.25;;;;;;;;;;8254365;28;20030;-73
2023/01/17 23:40:13;;;;;;;3.85;2.60;;;;;;;;;;8254329;28;20018;-74
2023/01/17 23:44:14;;;;;;;6.77;3.37;;;;;;;;;;8254636;28;20482;-74
2023/01/17 23:48:14;;;;;;;3.60;3.00;;;;;;;;;;8253121;28;20292;-74
2023/01/17 23:52:14;;;;;;;3.25;2.38;;;;;;;;;;8254913;28;20034;-74
2023/01/17 23:56:19;;;;;;;3.45;2.55;;;;;;;;;;8255157;28;20577;-74
